Time;durP1;ratioP1;P1;durP2;ratioP2;P2;SDS_P1;SDS_P2;PMS_P1;PMS_P2;Temp;Humidity;BMP_temperature;BMP_pressure;BME280_temperature;BME280_humidity;BME280_pressure;Samples;Min_cycle;Max_cycle;Signal;HPM_P1;HPM_P2
2021/08/27 00:00:09;;;;;;;8.90;1.48;;;;;;;13.61;77.94;102028.78;5064423;28;20025;-58
2021/08/27 00:02:34;;;;;;;12.77;1.60;;;;;;;13.62;77.50;102027.00;5064773;28;20093;-59
2021/08/27 00:05:00;;;;;;;10.35;2.00;;;;;;;13.64;78.32;102028.78;5063001;28;20103;-58
2021/08/27 00:07:25;;;;;;;7.97;1.52;;;;;;;13.67;77.62;102027.94;5053201;28;20199;-59
2021/08/27 00:09:50;;;;;;;11.38;1.67;;;;;;;13.71;78.40;102016.50;5063549;28;20132;-58
2021/08/27 00:12:17;;;;;;;13.13;1.58;;;;;;;13.77;77.82;102021.78;5056643;28;20385;-59
2021/08/27 00:14:42;;;;;;;14.38;1.63;;;;;;;13.82;77.87;102014.78;5051985;28;20093;-59
2021/08/27 00:17:08;;;;;;;7.47;1.30;;;;;;;13.89;78.00;102017.44;5051043;28;20036;-59
2021/08/27 00:19:33;;;;;;;12.10;1.92;;;;;;;13.95;76.87;102013.06;5060460;28;20033;-58
2021/08/27 00:21:58;;;;;;;9.02;1.70;;;;;;;14.02;76.04;102016.59;5063365;28;20144;-59
2021/08/27 00:24:24;;;;;;;11.30;1.52;;;;;;;14.08;75.53;102010.44;5062264;28;20101;-59
2021/08/27 00:26:49;;;;;;;8.32;1.50;;;;;;;14.12;76.43;102013.09;5064881;28;20029;-60
2021/08/27 00:29:14;;;;;;;13.02;1.30;;;;;;;14.14;76.08;102007.78;5064029;28;20036;-58
2021/08/27 00:31:40;;;;;;;6.70;1.40;;;;;;;14.16;76.93;102014.00;5061902;28;20029;-58
2021/08/27 00:34:05;;;;;;;7.78;1.60;;;;;;;14.20;77.10;102021.06;5060382;28;20127;-60
2021/08/27 00:36:31;;;;;;;7.13;1.85;;;;;;;14.19;76.71;102014.84;5064545;28;20049;-60
2021/08/27 00:38:56;;;;;;;7.35;1.50;;;;;;;14.21;78.42;102010.50;5063517;28;20104;-61
2021/08/27 00:41:22;;;;;;;9.00;1.55;;;;;;;14.22;77.31;102014.00;5063099;28;20060;-59
2021/08/27 00:43:48;;;;;;;9.45;1.23;;;;;;;14.21;77.79;102007.84;5061440;28;20053;-59
2021/08/27 00:46:13;;;;;;;7.95;1.40;;;;;;;14.24;76.18;102015.75;5064011;28;20036;-59
2021/08/27 00:48:39;;;;;;;8.77;1.75;;;;;;;14.26;77.29;102012.25;5070783;28;20084;-59
2021/08/27 00:51:05;;;;;;;9.98;1.77;;;;;;;14.30;77.40;102017.53;5065959;28;20040;-59
2021/08/27 00:53:33;;;;;;;9.98;1.20;;;;;;;14.36;75.42;102021.94;5062463;28;20029;-58
2021/08/27 00:55:58;;;;;;;14.07;1.90;;;;;;;14.38;77.39;102013.13;5061931;28;20033;-58
2021/08/27 00:58:24;;;;;;;9.98;2.10;;;;;;;14.39;77.52;102017.53;5064235;28;20021;-57
2021/08/27 01:00:49;;;;;;;11.15;2.10;;;;;;;14.43;75.51;102010.50;5064278;28;20049;-58
2021/08/27 01:03:17;;;;;;;6.35;1.52;;;;;;;14.48;74.63;102010.50;5062868;28;20134;-59
2021/08/27 01:06:02;;;;;;;12.55;2.20;;;;;;;14.50;75.30;102009.63;5061342;28;20049;-58
2021/08/27 01:08:42;;;;;;;8.77;1.35;;;;;;;14.49;76.39;102007.84;5046779;28;20203;-58
2021/08/27 01:11:24;;;;;;;10.20;1.30;;;;;;;14.48;77.08;102010.50;5062889;28;20053;-59
2021/08/27 01:14:06;;;;;;;11.02;1.40;;;;;;;14.49;75.47;102009.63;5064454;28;20055;-58
2021/08/27 01:16:40;;;;;;;9.77;1.45;;;;;;;14.49;76.25;102009.63;5058145;28;20380;-59
2021/08/27 01:19:33;;;;;;;15.38;1.83;;;;;;;14.45;76.26;102011.38;5064186;28;20021;-59
2021/08/27 01:22:04;;;;;;;11.15;2.20;;;;;;;14.43;77.04;102007.84;5060650;28;20021;-58
2021/08/27 01:24:32;;;;;;;12.82;2.33;;;;;;;14.38;77.39;101999.91;5059738;28;20646;-59
2021/08/27 01:27:03;;;;;;;13.18;1.77;;;;;;;14.32;77.39;102005.19;5062837;28;20025;-59
2021/08/27 01:29:49;;;;;;;13.07;1.88;;;;;;;14.28;77.60;102003.44;5063347;28;20396;-59
2021/08/27 01:32:48;;;;;;;13.75;1.90;;;;;;;14.23;77.92;101998.16;5057338;28;20341;-59
2021/08/27 01:35:15;;;;;;;7.57;1.67;;;;;;;14.14;78.31;102000.78;5061025;28;20052;-59
2021/08/27 01:37:51;;;;;;;8.05;2.08;;;;;;;14.08;78.92;102003.38;5062742;28;20369;-59
2021/08/27 01:40:22;;;;;;;12.07;1.77;;;;;;;14.01;78.49;102012.19;5061457;28;20033;-58
2021/08/27 01:42:50;;;;;;;13.63;1.98;;;;;;;13.93;79.10;102003.34;5062401;28;20021;-59
2021/08/27 01:45:17;;;;;;;10.18;1.77;;;;;;;13.86;79.41;102007.75;5063153;28;20119;-59
2021/08/27 01:47:44;;;;;;;9.20;1.50;;;;;;;13.81;80.01;102005.06;5063118;28;20037;-59
2021/08/27 01:50:11;;;;;;;11.90;1.52;;;;;;;13.76;79.85;102005.94;5061008;28;20111;-59
2021/08/27 01:52:39;;;;;;;9.57;1.92;;;;;;;13.67;79.75;102006.78;5060519;28;20044;-58
2021/08/27 01:55:07;;;;;;;10.85;1.52;;;;;;;13.60;79.61;102011.16;5054606;28;20063;-58
2021/08/27 01:57:35;;;;;;;12.80;1.90;;;;;;;13.56;80.63;102016.44;5061969;28;20443;-59
2021/08/27 02:00:03;;;;;;;8.95;2.17;;;;;;;13.52;80.65;102017.28;5062790;28;20507;-59
2021/08/27 02:02:29;;;;;;;16.70;2.03;;;;;;;13.45;81.19;102011.97;5062128;28;20107;-59
2021/08/27 02:04:59;;;;;;;10.35;1.50;;;;;;;13.40;80.84;102015.44;5064843;28;20385;-59
2021/08/27 02:07:26;;;;;;;10.40;1.77;;;;;;;13.37;81.63;102018.09;5064826;28;20045;-58
2021/08/27 02:09:55;;;;;;;10.57;1.88;;;;;;;13.35;81.30;102014.56;5063351;28;20039;-60
2021/08/27 02:12:21;;;;;;;9.88;1.52;;;;;;;13.32;81.40;102007.50;5061826;28;20025;-59
2021/08/27 02:14:50;;;;;;;9.70;1.52;;;;;;;13.30;81.12;102011.88;5061730;28;20025;-59
2021/08/27 02:17:16;;;;;;;11.13;1.80;;;;;;;13.26;81.38;102018.00;5063717;28;20029;-58
2021/08/27 02:19:42;;;;;;;8.23;1.73;;;;;;;13.23;81.37;102016.22;5074952;28;20056;-59
2021/08/27 02:22:12;;;;;;;8.98;1.60;;;;;;;13.23;81.67;102018.88;5059977;28;20036;-58
2021/08/27 02:24:45;;;;;;;11.27;1.92;;;;;;;13.23;81.80;102020.59;5061857;28;20067;-59
2021/08/27 02:27:11;;;;;;;12.88;2.15;;;;;;;13.22;81.54;102024.13;5057962;28;20119;-59
2021/08/27 02:29:39;;;;;;;9.90;2.05;;;;;;;13.20;81.67;102029.41;5062356;28;20118;-58
2021/08/27 02:32:07;;;;;;;9.50;1.83;;;;;;;13.18;81.17;102028.50;5062717;28;21465;-59
2021/08/27 02:34:37;;;;;;;8.45;1.95;;;;;;;13.16;81.48;102029.38;5062044;28;20025;-59
2021/08/27 02:37:05;;;;;;;9.45;1.50;;;;;;;13.12;81.66;102028.47;5059910;28;20029;-58
2021/08/27 02:39:30;;;;;;;9.88;1.80;;;;;;;13.09;81.27;102027.56;5060425;28;20048;-59
2021/08/27 02:41:57;;;;;;;11.88;1.70;;;;;;;13.04;81.25;102028.41;5059456;28;20029;-59
2021/08/27 02:44:24;;;;;;;7.50;1.75;;;;;;;13.00;81.67;102028.38;5067126;28;20037;-59
2021/08/27 02:46:49;;;;;;;15.38;1.73;;;;;;;12.99;82.10;102034.53;5063285;28;20404;-59
2021/08/27 02:49:15;;;;;;;8.50;1.40;;;;;;;12.96;81.72;102034.50;5063112;28;20033;-58
2021/08/27 02:51:52;;;;;;;7.47;1.83;;;;;;;12.93;82.13;102032.75;5060794;28;20049;-59
2021/08/27 02:54:21;;;;;;;12.68;1.95;;;;;;;12.92;82.24;102033.59;5062863;28;20025;-59
2021/08/27 02:56:52;;;;;;;11.43;2.25;;;;;;;12.92;82.09;102032.72;5061637;28;20295;-59
2021/08/27 02:59:18;;;;;;;15.55;1.67;;;;;;;12.90;82.35;102021.28;5063127;28;20431;-60
2021/08/27 03:01:51;;;;;;;13.65;1.95;;;;;;;12.87;82.14;102023.03;5062676;28;20048;-59
2021/08/27 03:04:48;;;;;;;11.10;1.40;;;;;;;12.84;82.11;102019.47;5060621;28;20052;-58
2021/08/27 03:07:16;;;;;;;11.40;1.70;;;;;;;12.83;82.09;102028.25;5067405;28;20130;-59
2021/08/27 03:10:09;;;;;;;11.75;1.60;;;;;;;12.86;82.13;102026.50;5063870;28;20123;-59
2021/08/27 03:12:56;;;;;;;9.30;2.40;;;;;;;12.89;82.01;102030.91;5063256;28;20088;-59
2021/08/27 03:15:48;;;;;;;8.75;1.48;;;;;;;12.86;81.75;102029.16;5065609;28;20140;-58
2021/08/27 03:18:18;;;;;;;7.82;1.40;;;;;;;12.88;81.47;102031.81;5066403;28;20025;-59
2021/08/27 03:20:57;;;;;;;8.75;1.58;;;;;;;12.89;82.02;102038.84;5065527;28;20139;-59
2021/08/27 03:23:27;;;;;;;11.55;1.48;;;;;;;12.86;81.98;102025.63;5064624;28;20056;-60
2021/08/27 03:25:53;;;;;;;7.82;1.70;;;;;;;12.82;81.80;102027.38;5064838;28;20198;-59
2021/08/27 03:28:24;;;;;;;7.70;1.50;;;;;;;12.78;81.89;102027.31;5065069;28;20033;-59
2021/08/27 03:30:51;;;;;;;9.32;1.45;;;;;;;12.74;81.82;102025.53;5064998;28;20029;-59
2021/08/27 03:33:19;;;;;;;6.70;1.55;;;;;;;12.71;81.62;102036.06;5065518;28;20055;-58
2021/08/27 03:35:52;;;;;;;6.13;1.48;;;;;;;12.69;81.89;102028.13;5073650;28;20098;-59
2021/08/27 03:38:19;;;;;;;10.27;1.60;;;;;;;12.68;81.75;102027.25;5066162;28;20048;-59
2021/08/27 03:40:49;;;;;;;7.70;1.48;;;;;;;12.68;82.23;102023.72;5063564;28;20048;-58
2021/08/27 03:43:14;;;;;;;4.63;1.63;;;;;;;12.72;82.48;102024.63;5064368;28;20028;-59
2021/08/27 03:45:41;;;;;;;5.15;1.50;;;;;;;12.73;82.78;102019.38;5064965;28;20037;-59
2021/08/27 03:48:07;;;;;;;10.73;1.80;;;;;;;12.74;82.39;102021.16;5065610;28;20432;-59
2021/08/27 03:50:33;;;;;;;5.85;1.58;;;;;;;12.78;82.68;102033.50;5066237;28;20025;-59
2021/08/27 03:52:59;;;;;;;4.40;1.58;;;;;;;12.77;82.41;102034.34;5065165;28;20044;-61
2021/08/27 03:55:27;;;;;;;10.98;2.30;;;;;;;12.80;82.57;102033.50;5064899;28;20025;-59
2021/08/27 03:57:55;;;;;;;8.68;1.42;;;;;;;12.81;82.31;102037.91;5064935;28;20059;-58
2021/08/27 04:00:23;;;;;;;7.85;1.70;;;;;;;12.84;82.21;102032.66;5065400;28;20492;-59
2021/08/27 04:02:51;;;;;;;7.57;1.50;;;;;;;12.86;82.58;102029.16;5065277;28;20060;-59
2021/08/27 04:05:19;;;;;;;13.60;1.85;;;;;;;12.92;83.00;102032.72;5062509;28;20048;-59
2021/08/27 04:07:47;;;;;;;8.93;1.67;;;;;;;12.98;82.25;102036.28;5065122;28;20050;-60
2021/08/27 04:10:15;;;;;;;7.50;1.70;;;;;;;13.02;82.47;102031.91;5062765;28;21687;-59
2021/08/27 04:12:41;;;;;;;6.25;2.08;;;;;;;13.05;82.11;102030.16;5063797;28;20452;-59
2021/08/27 04:15:14;;;;;;;8.68;2.08;;;;;;;13.10;82.38;102031.94;5064590;28;20036;-59
2021/08/27 04:17:40;;;;;;;8.00;1.50;;;;;;;13.11;82.50;102029.31;5064985;28;20557;-59
2021/08/27 04:20:07;;;;;;;11.32;1.73;;;;;;;13.10;82.32;102030.22;5065779;28;20633;-59
2021/08/27 04:22:33;;;;;;;6.97;1.63;;;;;;;13.09;82.46;102036.34;5063678;28;20025;-58
2021/08/27 04:24:58;;;;;;;7.22;1.90;;;;;;;13.07;81.62;102036.34;5064446;28;20048;-59
2021/08/27 04:27:24;;;;;;;8.10;1.40;;;;;;;13.07;81.83;102031.06;5064249;28;20079;-59
2021/08/27 04:29:50;;;;;;;4.95;1.98;;;;;;;13.07;82.02;102038.09;5064798;28;20033;-58
2021/08/27 04:32:16;;;;;;;6.93;1.98;;;;;;;13.04;81.66;102043.34;5064087;28;20025;-59
2021/08/27 04:34:41;;;;;;;6.97;1.52;;;;;;;13.01;81.34;102041.56;5063734;28;20081;-59
2021/08/27 04:37:07;;;;;;;16.45;3.00;;;;;;;13.01;81.33;102043.34;5066677;28;20498;-58
2021/08/27 04:39:32;;;;;;;11.18;1.80;;;;;;;13.03;81.59;102042.47;5067860;28;20028;-59
2021/08/27 04:41:58;;;;;;;8.10;1.67;;;;;;;13.04;81.72;102043.34;5068685;28;20052;-59
2021/08/27 04:44:24;;;;;;;12.65;1.92;;;;;;;13.03;81.34;102050.38;5063911;28;20063;-59
2021/08/27 04:46:49;;;;;;;8.02;1.80;;;;;;;13.04;81.78;102045.97;5064335;28;20037;-59
2021/08/27 04:49:15;;;;;;;9.93;2.22;;;;;;;13.02;82.10;102042.44;5064669;28;20045;-60
2021/08/27 04:51:40;;;;;;;4.93;1.80;;;;;;;13.01;81.99;102041.56;5064213;28;20412;-59
2021/08/27 04:54:06;;;;;;;8.10;1.50;;;;;;;12.98;82.11;102046.81;5061612;28;20113;-59
2021/08/27 04:56:31;;;;;;;5.40;1.45;;;;;;;12.95;81.90;102048.53;5062626;28;20041;-62
2021/08/27 04:58:56;;;;;;;9.07;2.22;;;;;;;12.93;81.66;102045.94;5063209;28;20063;-59
2021/08/27 05:01:22;;;;;;;6.50;1.92;;;;;;;12.93;81.97;102050.28;5063988;28;20036;-59
2021/08/27 05:03:47;;;;;;;9.48;1.98;;;;;;;12.94;81.98;102055.59;5064194;28;20033;-58
2021/08/27 05:06:12;;;;;;;4.28;1.70;;;;;;;12.96;82.02;102048.56;5063968;28;20037;-60
2021/08/27 05:08:38;;;;;;;7.35;1.90;;;;;;;13.02;81.89;102055.66;5062115;28;20029;-58
2021/08/27 05:11:04;;;;;;;8.93;1.73;;;;;;;13.03;81.59;102057.44;5061073;28;20373;-59
2021/08/27 05:13:30;;;;;;;11.43;1.70;;;;;;;13.07;81.64;102053.94;5063550;28;20079;-59
2021/08/27 05:15:55;;;;;;;6.72;1.45;;;;;;;13.12;82.15;102053.94;5063859;28;20045;-59
2021/08/27 05:18:21;;;;;;;8.55;1.58;;;;;;;13.15;81.85;102054.00;5062101;28;20060;-59
2021/08/27 05:20:46;;;;;;;7.20;1.70;;;;;;;13.19;82.04;102059.28;5063974;28;20029;-60
2021/08/27 05:23:12;;;;;;;8.35;1.50;;;;;;;13.24;81.53;102048.78;5060610;28;20029;-60
2021/08/27 05:25:37;;;;;;;6.97;1.70;;;;;;;13.31;81.76;102055.00;5062121;28;20159;-60
2021/08/27 05:28:03;;;;;;;7.75;1.65;;;;;;;13.37;81.74;102058.56;5063061;28;20072;-58
2021/08/27 05:30:28;;;;;;;5.03;1.40;;;;;;;13.45;82.12;102053.31;5063015;28;20472;-60
2021/08/27 05:32:55;;;;;;;6.78;1.50;;;;;;;13.51;81.62;102060.41;5063111;28;20029;-59
2021/08/27 05:35:20;;;;;;;7.85;2.28;;;;;;;13.57;81.60;102063.97;5067198;28;20032;-59
2021/08/27 05:37:45;;;;;;;11.27;2.10;;;;;;;13.62;81.91;102056.94;5064348;28;20032;-59
2021/08/27 05:40:11;;;;;;;5.93;1.92;;;;;;;13.69;81.65;102060.50;5065136;28;20615;-59
2021/08/27 05:42:41;;;;;;;6.93;1.90;;;;;;;13.77;81.74;102063.19;5062824;28;20739;-60
2021/08/27 05:45:07;;;;;;;8.52;2.20;;;;;;;13.81;80.94;102060.53;5063462;28;20040;-59
2021/08/27 05:47:32;;;;;;;4.22;1.55;;;;;;;13.87;81.30;102062.34;5061760;28;20033;-59
2021/08/27 05:49:59;;;;;;;5.55;1.65;;;;;;;13.89;80.46;102065.84;5063277;28;20056;-60
2021/08/27 05:52:24;;;;;;;5.80;1.85;;;;;;;13.91;80.84;102069.38;5063062;28;20040;-59
2021/08/27 05:54:50;;;;;;;6.53;1.83;;;;;;;13.93;81.27;102066.75;5064154;28;20025;-59
2021/08/27 05:57:15;;;;;;;4.60;1.38;;;;;;;13.93;80.10;102064.13;5062369;28;20773;-60
2021/08/27 05:59:40;;;;;;;10.20;1.65;;;;;;;13.95;80.46;102078.22;5063846;28;20036;-59
2021/08/27 06:02:06;;;;;;;11.05;1.83;;;;;;;13.97;80.21;102077.38;5063221;28;20041;-59
2021/08/27 06:04:31;;;;;;;9.40;1.73;;;;;;;14.00;78.74;102072.06;5063217;28;20133;-59
2021/08/27 06:06:57;;;;;;;10.65;2.17;;;;;;;14.08;79.08;102077.38;5063372;28;20056;-59
2021/08/27 06:09:23;;;;;;;9.48;1.95;;;;;;;14.16;78.34;102080.94;5063371;28;20048;-58
2021/08/27 06:11:48;;;;;;;7.95;1.58;;;;;;;14.25;77.71;102085.38;5060898;28;20029;-58
2021/08/27 06:14:13;;;;;;;5.00;1.50;;;;;;;14.40;77.90;102084.53;5059483;28;20047;-59
2021/08/27 06:16:39;;;;;;;6.65;1.40;;;;;;;14.57;76.94;102077.56;5060696;28;20041;-58
2021/08/27 06:19:05;;;;;;;5.18;1.30;;;;;;;14.80;76.56;102074.03;5063107;28;20025;-59
2021/08/27 06:21:32;;;;;;;8.32;1.90;;;;;;;15.00;74.55;102072.25;5063020;28;20031;-58
2021/08/27 06:23:58;;;;;;;6.75;1.85;;;;;;;15.19;72.38;102066.97;5063282;28;20098;-59
2021/08/27 06:26:23;;;;;;;6.47;1.30;;;;;;;15.32;72.26;102070.47;5062716;28;20037;-60
2021/08/27 06:28:48;;;;;;;6.25;1.45;;;;;;;15.39;73.01;102074.88;5060479;28;20037;-58
2021/08/27 06:31:14;;;;;;;6.22;1.20;;;;;;;15.54;71.26;102071.31;5063134;28;20036;-59
2021/08/27 06:33:39;;;;;;;5.38;1.30;;;;;;;15.66;70.88;102075.69;5059712;28;20103;-58
2021/08/27 06:36:05;;;;;;;5.82;1.40;;;;;;;15.75;70.67;102073.06;5063250;28;20037;-59
2021/08/27 06:38:31;;;;;;;4.50;1.42;;;;;;;15.88;68.97;102074.78;5062086;28;20110;-58
2021/08/27 06:41:02;;;;;;;5.93;1.52;;;;;;;16.10;67.31;102077.31;5061701;28;20036;-59
2021/08/27 06:43:30;;;;;;;3.97;1.65;;;;;;;16.36;66.77;102074.50;5062231;28;20047;-59
2021/08/27 06:45:58;;;;;;;7.60;1.23;;;;;;;16.62;65.59;102084.97;5066596;28;20109;-60
2021/08/27 06:48:23;;;;;;;4.82;1.35;;;;;;;16.93;64.35;102077.66;5066873;28;20029;-58
2021/08/27 06:50:49;;;;;;;5.60;1.50;;;;;;;17.26;63.31;102078.25;5064332;28;20048;-60
2021/08/27 06:53:14;;;;;;;4.53;1.42;;;;;;;17.52;63.03;102085.06;5064679;28;20582;-60
2021/08/27 06:55:40;;;;;;;7.55;1.48;;;;;;;17.69;62.97;102080.47;5059576;28;20377;-59
2021/08/27 06:58:05;;;;;;;7.13;1.75;;;;;;;17.86;62.08;102090.94;5069402;28;20025;-59
2021/08/27 07:00:31;;;;;;;4.50;1.10;;;;;;;17.97;61.11;102087.25;5063672;28;20094;-59
2021/08/27 07:02:57;;;;;;;5.53;1.30;;;;;;;17.87;59.53;102086.47;5062998;28;20067;-60
2021/08/27 07:05:22;;;;;;;6.15;1.50;;;;;;;17.66;61.78;102088.47;5065359;28;20137;-60
2021/08/27 07:07:48;;;;;;;5.97;1.40;;;;;;;17.60;61.23;102093.84;5066710;28;20025;-59
2021/08/27 07:10:13;;;;;;;4.10;1.40;;;;;;;17.54;60.74;102096.56;5064340;28;20047;-60
2021/08/27 07:12:40;;;;;;;4.30;1.20;;;;;;;17.50;60.71;102097.50;5072407;28;20032;-60
2021/08/27 07:15:07;;;;;;;4.97;1.35;;;;;;;17.52;61.38;102099.25;5050781;28;20053;-59
2021/08/27 07:17:32;;;;;;;4.78;1.63;;;;;;;17.62;61.09;102104.47;5072272;28;20021;-61
2021/08/27 07:19:58;;;;;;;5.55;1.20;;;;;;;17.74;59.82;102110.50;5064691;28;20048;-61
2021/08/27 07:22:23;;;;;;;5.25;1.45;;;;;;;17.86;61.06;102104.22;5065329;28;20089;-60
2021/08/27 07:24:48;;;;;;;5.97;1.33;;;;;;;17.82;59.42;102107.75;5065861;28;20033;-60
2021/08/27 07:27:14;;;;;;;5.63;1.50;;;;;;;17.65;60.19;102099.09;5065881;28;20040;-59
2021/08/27 07:29:39;;;;;;;7.68;1.40;;;;;;;17.49;61.26;102106.38;5069865;28;20025;-59
2021/08/27 07:32:06;;;;;;;8.32;1.58;;;;;;;17.51;61.95;102102.78;5066083;28;20106;-59
2021/08/27 07:34:32;;;;;;;5.22;1.25;;;;;;;17.65;62.51;102097.31;5066426;28;20032;-60
2021/08/27 07:36:58;;;;;;;7.10;1.38;;;;;;;17.84;61.45;102097.09;5065247;28;20035;-60
2021/08/27 07:39:23;;;;;;;4.43;1.60;;;;;;;18.00;61.41;102104.03;5070866;28;20519;-60
2021/08/27 07:41:49;;;;;;;5.03;1.50;;;;;;;18.18;58.13;102094.94;5064696;28;20059;-59
2021/08/27 07:44:14;;;;;;;5.97;1.73;;;;;;;18.34;59.58;102113.38;5065817;28;20437;-60
2021/08/27 07:46:39;;;;;;;4.38;1.48;;;;;;;18.41;59.74;102117.69;5065789;28;20037;-59
2021/08/27 07:49:05;;;;;;;7.68;1.65;;;;;;;18.46;59.23;102111.38;5065816;28;20435;-60
2021/08/27 07:51:30;;;;;;;4.15;1.35;;;;;;;18.54;58.88;102118.38;5065845;28;20761;-59
2021/08/27 07:53:56;;;;;;;5.15;1.50;;;;;;;18.50;57.70;102121.09;5064440;28;20067;-59
2021/08/27 07:56:22;;;;;;;5.05;1.50;;;;;;;18.50;57.43;102117.56;5065423;28;20029;-60
2021/08/27 07:58:48;;;;;;;6.15;1.85;;;;;;;18.51;59.12;102122.00;5064868;28;20029;-60
2021/08/27 08:01:14;;;;;;;2.22;1.45;;;;;;;18.66;57.90;102120.88;5066328;28;20128;-60
2021/08/27 08:03:39;;;;;;;7.22;2.05;;;;;;;18.80;58.52;102124.22;5065279;28;20039;-60
2021/08/27 08:06:05;;;;;;;5.30;1.80;;;;;;;18.99;56.54;102116.81;5062228;28;20047;-59
2021/08/27 08:08:30;;;;;;;5.60;1.40;;;;;;;19.10;56.09;102124.63;5062599;28;20060;-57
2021/08/27 08:10:55;;;;;;;6.68;2.00;;;;;;;19.17;56.25;102120.97;5064385;28;20028;-59
2021/08/27 08:13:22;;;;;;;6.90;1.90;;;;;;;19.27;56.11;102122.56;5067159;28;20024;-61
2021/08/27 08:15:47;;;;;;;5.70;1.85;;;;;;;19.31;53.77;102128.72;5062919;28;20090;-59
2021/08/27 08:18:12;;;;;;;4.10;1.80;;;;;;;19.26;54.07;102114.59;5062035;28;20064;-60
2021/08/27 08:20:38;;;;;;;8.35;2.53;;;;;;;19.28;55.83;102116.34;5062409;28;20021;-60
2021/08/27 08:23:03;;;;;;;7.07;2.15;;;;;;;19.37;54.90;102125.94;5059725;28;20025;-60
2021/08/27 08:25:29;;;;;;;4.07;1.80;;;;;;;19.34;55.23;102114.44;5060652;28;20043;-60
2021/08/27 08:27:54;;;;;;;7.43;2.42;;;;;;;19.42;53.64;102125.88;5064003;28;20033;-59
2021/08/27 08:30:19;;;;;;;10.75;2.50;;;;;;;19.37;55.53;102138.38;5060558;28;20028;-61
2021/08/27 08:32:46;;;;;;;9.35;2.28;;;;;;;19.30;54.88;102121.66;5060972;28;20091;-61
2021/08/27 08:35:12;;;;;;;6.68;2.20;;;;;;;19.31;55.76;102130.50;5063526;28;20058;-61
2021/08/27 08:37:41;;;;;;;5.32;2.00;;;;;;;19.22;56.25;102129.75;5061104;28;20090;-61
2021/08/27 08:40:09;;;;;;;6.70;2.10;;;;;;;19.24;55.92;102124.41;5062977;28;20041;-61
2021/08/27 08:42:36;;;;;;;7.43;2.00;;;;;;;19.14;56.89;102123.69;5061954;28;20021;-60
2021/08/27 08:45:02;;;;;;;6.97;1.95;;;;;;;19.14;57.02;102138.78;5063950;28;20028;-61
2021/08/27 08:47:29;;;;;;;6.40;2.10;;;;;;;19.09;57.12;102129.09;5067699;28;20036;-60
2021/08/27 08:49:55;;;;;;;11.32;2.47;;;;;;;19.16;56.74;102137.84;5077075;28;20038;-60
2021/08/27 08:52:25;;;;;;;9.35;2.67;;;;;;;19.22;55.70;102128.88;5063893;28;20607;-62
2021/08/27 08:54:51;;;;;;;7.45;2.20;;;;;;;19.27;57.37;102135.00;5058104;28;20060;-61
2021/08/27 08:57:21;;;;;;;6.97;2.05;;;;;;;19.17;57.17;102130.72;5064874;28;20029;-60
2021/08/27 08:59:46;;;;;;;;;;;;;;;19.08;56.50;102139.78;5062468;28;20063;-60
2021/08/27 09:02:12;;;;;;;7.35;2.00;;;;;;;19.06;55.67;102134.47;5064674;28;19917;-61
2021/08/27 09:04:37;;;;;;;7.10;1.92;;;;;;;19.08;56.12;102131.78;5063027;28;20195;-60
2021/08/27 09:07:04;;;;;;;8.38;2.78;;;;;;;19.18;56.81;102137.81;5064551;28;20148;-61
2021/08/27 09:09:31;;;;;;;13.52;3.20;;;;;;;19.37;55.97;102130.38;5064392;28;20465;-61
2021/08/27 09:11:58;;;;;;;6.20;2.00;;;;;;;19.58;55.57;102140.66;5064041;28;20051;-60
2021/08/27 09:14:30;;;;;;;5.68;1.95;;;;;;;19.72;52.72;102136.88;5063901;28;20060;-60
2021/08/27 09:17:05;;;;;;;5.35;1.95;;;;;;;19.77;52.21;102132.34;5061746;28;20037;-60
2021/08/27 09:19:51;;;;;;;9.48;2.65;;;;;;;19.80;54.86;102135.81;5057850;28;20024;-61
2021/08/27 09:22:18;;;;;;;7.55;2.47;;;;;;;19.79;54.96;102150.09;5061860;28;20051;-60
2021/08/27 09:24:44;;;;;;;7.03;2.17;;;;;;;19.59;54.69;102144.22;5061466;28;20032;-61
2021/08/27 09:27:09;;;;;;;7.85;2.75;;;;;;;19.38;54.90;102141.03;5068477;28;20033;-61
2021/08/27 09:29:43;;;;;;;6.45;2.35;;;;;;;19.17;55.33;102146.72;5064256;28;20033;-59
2021/08/27 09:32:30;;;;;;;9.38;2.30;;;;;;;19.28;55.64;102144.75;5072602;28;20017;-60
2021/08/27 09:35:19;;;;;;;7.00;2.28;;;;;;;19.18;54.50;102144.03;5064090;28;20037;-60
2021/08/27 09:37:47;;;;;;;6.30;2.28;;;;;;;19.03;56.22;102144.28;5063771;28;20063;-60
2021/08/27 09:40:16;;;;;;;9.43;2.75;;;;;;;18.91;55.27;102141.84;5061205;28;20044;-60
2021/08/27 09:42:46;;;;;;;10.38;2.85;;;;;;;18.86;56.84;102131.25;5063695;28;20025;-60
2021/08/27 09:45:12;;;;;;;9.60;3.13;;;;;;;19.00;57.37;102139.91;5063701;28;20457;-60
2021/08/27 09:47:54;;;;;;;9.48;2.10;;;;;;;18.97;56.22;102152.38;5062152;28;20043;-60
2021/08/27 09:50:25;;;;;;;8.65;2.40;;;;;;;18.96;55.59;102143.53;5063746;28;20108;-60
2021/08/27 09:53:02;;;;;;;7.60;2.33;;;;;;;19.04;56.43;102143.41;5065411;28;20037;-60
2021/08/27 09:55:29;;;;;;;8.75;2.15;;;;;;;19.11;56.88;102145.06;5065350;28;20055;-61
2021/08/27 09:58:08;;;;;;;8.10;2.20;;;;;;;19.18;54.61;102141.38;5063346;28;20092;-60
2021/08/27 10:00:37;;;;;;;6.47;2.00;;;;;;;19.24;54.56;102127.06;5063841;28;20021;-62
2021/08/27 10:03:20;;;;;;;12.93;2.20;;;;;;;19.22;54.68;102135.06;5063467;28;20052;-62
2021/08/27 10:05:47;;;;;;;8.23;1.90;;;;;;;19.22;54.31;102140.41;5063498;28;20303;-61
2021/08/27 10:08:19;;;;;;;4.97;1.85;;;;;;;19.29;54.59;102131.41;5061801;28;20068;-61
2021/08/27 10:10:46;;;;;;;6.47;1.92;;;;;;;19.32;55.10;102133.16;5063588;28;20052;-60
2021/08/27 10:13:12;;;;;;;7.10;2.30;;;;;;;19.42;53.95;102129.41;5061827;28;20029;-63
2021/08/27 10:15:38;;;;;;;8.43;1.88;;;;;;;19.44;54.38;102134.72;5062121;28;20033;-60
2021/08/27 10:18:08;;;;;;;7.88;2.22;;;;;;;19.46;54.96;102123.09;5064780;28;20029;-59
2021/08/27 10:20:38;;;;;;;6.88;2.00;;;;;;;19.48;54.70;102123.09;5056914;28;20033;-61
2021/08/27 10:23:09;;;;;;;8.15;2.30;;;;;;;19.50;56.18;102126.59;5051293;28;20021;-59
2021/08/27 10:25:36;;;;;;;9.23;2.47;;;;;;;19.58;54.65;102124.66;5060555;28;20033;-60
2021/08/27 10:28:02;;;;;;;8.43;2.17;;;;;;;19.69;55.36;102116.47;5054672;28;20402;-58
2021/08/27 10:30:59;;;;;;;9.07;2.05;;;;;;;19.80;54.15;102132.28;5052156;28;20049;-58
2021/08/27 10:33:43;;;;;;;11.77;2.40;;;;;;;19.78;53.34;102126.97;5059927;28;20036;-59
2021/08/27 10:36:11;;;;;;;7.68;2.10;;;;;;;19.74;52.92;102127.09;5058150;28;20029;-60
2021/08/27 10:38:47;;;;;;;10.30;2.38;;;;;;;19.51;53.37;102132.78;5055660;28;20104;-60
2021/08/27 10:41:17;;;;;;;5.00;1.58;;;;;;;19.37;54.32;102120.59;5056044;28;20025;-60
2021/08/27 10:43:54;;;;;;;6.78;2.17;;;;;;;19.47;55.45;102126.66;5060527;28;20048;-59
2021/08/27 10:46:20;;;;;;;6.35;1.73;;;;;;;19.46;55.06;102116.91;5058572;28;20033;-60
2021/08/27 10:48:54;;;;;;;5.03;1.90;;;;;;;19.57;56.17;102125.56;5055484;28;20028;-57
2021/08/27 10:51:34;;;;;;;10.75;2.22;;;;;;;19.60;54.92;102119.28;5057405;28;20099;-56
2021/08/27 10:54:00;;;;;;;4.78;1.70;;;;;;;19.57;53.54;102111.38;5060781;28;20081;-56
2021/08/27 10:56:43;;;;;;;6.18;1.90;;;;;;;19.53;55.02;102104.31;5062259;28;20062;-59
2021/08/27 10:59:11;;;;;;;7.25;1.88;;;;;;;19.52;55.01;102116.78;5059334;28;20045;-58
2021/08/27 11:01:38;;;;;;;5.88;1.90;;;;;;;19.58;55.19;102111.31;5060146;28;20092;-60
2021/08/27 11:04:23;;;;;;;7.80;2.13;;;;;;;19.64;54.80;102113.00;5060490;28;20053;-60
2021/08/27 11:06:52;;;;;;;8.63;2.20;;;;;;;19.64;52.53;102124.56;5058796;28;20031;-60
2021/08/27 11:09:28;;;;;;;9.45;2.00;;;;;;;19.54;53.29;102122.09;5061870;28;20108;-60
2021/08/27 11:12:18;;;;;;;11.40;1.83;;;;;;;19.47;54.52;102103.56;5060149;28;20040;-62
2021/08/27 11:14:46;;;;;;;7.38;1.65;;;;;;;19.42;54.58;102113.41;5058957;28;20036;-61
2021/08/27 11:17:12;;;;;;;11.30;2.22;;;;;;;19.41;55.02;102116.09;5058630;28;20033;-65
2021/08/27 11:19:40;;;;;;;8.52;2.30;;;;;;;19.44;55.60;102113.38;5059940;28;20035;-61
2021/08/27 11:22:11;;;;;;;6.93;2.10;;;;;;;19.37;55.18;102117.94;5057876;28;20043;-60
2021/08/27 11:24:41;;;;;;;8.15;2.20;;;;;;;19.32;54.58;102117.16;5056153;28;20103;-61
2021/08/27 11:27:14;;;;;;;9.63;2.40;;;;;;;19.36;54.78;102121.53;5057706;28;20029;-61
2021/08/27 11:29:41;;;;;;;8.27;2.15;;;;;;;19.39;54.89;102132.13;5063019;28;20032;-60